Time;durP1;ratioP1;P1;durP2;ratioP2;P2;SDS_P1;SDS_P2;PMS_P1;PMS_P2;Temp;Humidity;BMP_temperature;BMP_pressure;BME280_temperature;BME280_humidity;BME280_pressure;Samples;Min_cycle;Max_cycle;Signal;HPM_P1;HPM_P2
2023/08/05 00:00:54;;;;;;;6.18;4.15;;;;;;;17.40;70.64;101611.16;5052334;28;20025;-77
2023/08/05 00:03:20;;;;;;;6.30;4.72;;;;;;;17.39;70.74;101604.69;5053332;28;20087;-78
2023/08/05 00:05:45;;;;;;;9.85;4.57;;;;;;;17.34;70.88;101601.91;5053476;28;20029;-78
2023/08/05 00:08:10;;;;;;;8.13;4.95;;;;;;;17.35;70.77;101606.38;5051354;28;20381;-78
2023/08/05 00:10:36;;;;;;;5.25;4.75;;;;;;;17.35;70.76;101597.13;5053941;28;20036;-78
2023/08/05 00:13:01;;;;;;;6.72;5.22;;;;;;;17.36;70.88;101599.63;5052955;28;20071;-77
2023/08/05 00:15:27;;;;;;;9.60;5.38;;;;;;;17.35;70.88;101595.16;5052820;28;20053;-77
2023/08/05 00:17:52;;;;;;;7.05;4.95;;;;;;;17.36;70.76;101593.19;5052740;28;20091;-76
2023/08/05 00:20:18;;;;;;;7.68;5.10;;;;;;;17.30;71.02;101588.72;5052131;28;20439;-77
2023/08/05 00:22:43;;;;;;;7.63;5.18;;;;;;;17.28;71.20;101590.94;5052486;28;20039;-77
2023/08/05 00:25:08;;;;;;;9.85;5.68;;;;;;;17.31;71.03;101596.84;5059676;28;20124;-77
2023/08/05 00:27:34;;;;;;;8.98;5.15;;;;;;;17.33;70.93;101589.00;5072041;28;20054;-78
2023/08/05 00:29:59;;;;;;;5.88;5.13;;;;;;;17.34;71.08;101590.69;5072448;28;20028;-77
2023/08/05 00:32:26;;;;;;;8.15;5.32;;;;;;;17.28;71.38;101591.78;5072454;28;20028;-78
2023/08/05 00:34:52;;;;;;;6.57;4.97;;;;;;;17.35;71.17;101583.94;5071559;28;20097;-78
2023/08/05 00:37:17;;;;;;;6.45;4.97;;;;;;;17.31;71.42;101581.97;5072547;28;20028;-77
2023/08/05 00:39:42;;;;;;;10.82;5.35;;;;;;;17.28;71.70;101577.75;5072733;28;20024;-77
2023/08/05 00:42:08;;;;;;;6.13;5.55;;;;;;;17.29;71.73;101582.28;5066116;28;20036;-77
2023/08/05 00:44:33;;;;;;;5.80;5.20;;;;;;;17.29;71.49;101575.78;5054287;28;20021;-78
2023/08/05 00:46:59;;;;;;;10.30;5.50;;;;;;;17.29;71.77;101582.28;5052780;28;20032;-77
2023/08/05 00:49:25;;;;;;;7.72;5.80;;;;;;;17.27;71.58;101575.25;5051668;28;20479;-77
2023/08/05 00:51:51;;;;;;;7.82;5.47;;;;;;;17.23;71.87;101565.72;5051900;28;20029;-77
2023/08/05 00:54:17;;;;;;;7.55;5.28;;;;;;;17.21;71.77;101559.53;5052052;28;20056;-78
2023/08/05 00:56:44;;;;;;;6.25;5.60;;;;;;;17.24;71.80;101561.78;5051713;28;20057;-78
2023/08/05 00:59:11;;;;;;;6.85;5.13;;;;;;;17.25;71.93;101555.03;5052191;28;20039;-77
2023/08/05 01:01:36;;;;;;;7.53;5.57;;;;;;;17.24;71.82;101554.19;5055378;28;20037;-77
2023/08/05 01:04:02;;;;;;;9.35;5.63;;;;;;;17.21;71.88;101551.94;5059876;28;20043;-77
2023/08/05 01:06:28;;;;;;;7.40;6.20;;;;;;;17.18;72.03;101558.13;5071587;28;20472;-78
2023/08/05 01:08:54;;;;;;;8.45;5.75;;;;;;;17.15;72.00;101551.13;5072409;28;20028;-77
2023/08/05 01:11:21;;;;;;;8.98;5.88;;;;;;;17.17;72.06;101562.03;5071424;28;20503;-77
2023/08/05 01:13:47;;;;;;;11.88;6.18;;;;;;;17.14;72.02;101549.44;5071864;28;20060;-77
2023/08/05 01:16:12;;;;;;;5.60;5.07;;;;;;;17.12;71.64;101534.84;5071100;28;20520;-77
2023/08/05 01:18:38;;;;;;;6.13;5.45;;;;;;;17.11;71.84;101540.75;5071864;28;20021;-77
2023/08/05 01:21:14;;;;;;;11.32;5.68;;;;;;;17.06;72.19;101538.78;5068613;28;20034;-77
2023/08/05 01:23:52;;;;;;;6.90;5.05;;;;;;;17.09;72.13;101542.97;5070691;28;20027;-78
2023/08/05 01:26:18;;;;;;;6.28;5.40;;;;;;;17.11;71.87;101530.34;5071746;28;20036;-77
2023/08/05 01:28:45;;;;;;;9.38;5.70;;;;;;;17.13;71.76;101541.28;5071781;28;20107;-77
2023/08/05 01:31:13;;;;;;;7.60;6.22;;;;;;;17.07;71.97;101540.44;5070174;28;20460;-77
2023/08/05 01:33:39;;;;;;;8.43;5.43;;;;;;;17.04;72.19;101542.97;5071366;28;20044;-77
2023/08/05 01:36:04;;;;;;;9.25;5.95;;;;;;;17.04;72.08;101542.97;5071681;28;20024;-77
2023/08/05 01:38:29;;;;;;;6.50;5.72;;;;;;;17.00;72.01;101545.50;5068495;28;20029;-77
2023/08/05 01:40:55;;;;;;;8.45;5.82;;;;;;;16.99;72.17;101540.19;5071362;28;20527;-77
2023/08/05 01:43:20;;;;;;;8.82;5.88;;;;;;;16.93;72.18;101542.94;5071216;28;20028;-77
2023/08/05 01:45:45;;;;;;;9.50;6.20;;;;;;;16.95;72.22;101539.88;5071078;28;20017;-77
2023/08/05 01:48:10;;;;;;;6.05;5.45;;;;;;;16.93;72.41;101536.50;5071049;28;20586;-77
2023/08/05 01:50:36;;;;;;;8.80;6.80;;;;;;;16.95;72.11;101537.09;5071655;28;20043;-77
2023/08/05 01:53:02;;;;;;;7.10;6.40;;;;;;;16.87;72.32;101537.66;5068387;28;20061;-77
2023/08/05 01:55:27;;;;;;;8.38;6.40;;;;;;;16.87;72.40;101544.09;5054191;28;20033;-77
2023/08/05 01:57:52;;;;;;;10.95;6.10;;;;;;;16.90;72.52;101543.53;5051196;28;20207;-77
2023/08/05 02:00:20;;;;;;;8.38;6.40;;;;;;;16.90;72.34;101537.09;5050675;28;20037;-78
2023/08/05 02:02:46;;;;;;;6.65;5.93;;;;;;;16.81;72.35;101536.78;5051068;28;20473;-77
2023/08/05 02:05:11;;;;;;;8.13;6.03;;;;;;;16.89;72.19;101536.22;5051140;28;20032;-77
2023/08/05 02:07:36;;;;;;;7.63;6.22;;;;;;;16.83;72.44;101545.78;5050786;28;20106;-78
2023/08/05 02:10:02;;;;;;;9.02;6.50;;;;;;;16.83;72.37;101540.16;5051123;28;20060;-77
2023/08/05 02:12:27;;;;;;;8.25;6.03;;;;;;;16.79;72.33;101543.81;5062285;28;20047;-77
2023/08/05 02:14:52;;;;;;;8.98;6.70;;;;;;;16.79;72.15;101539.03;5070883;28;20025;-77
2023/08/05 02:17:17;;;;;;;10.23;6.72;;;;;;;16.70;72.46;101546.25;5070658;28;20036;-76
2023/08/05 02:19:43;;;;;;;9.77;6.47;;;;;;;16.69;72.38;101538.97;5070113;28;20818;-76
2023/08/05 02:22:08;;;;;;;7.43;6.72;;;;;;;16.66;72.56;101542.31;5070648;28;20040;-77
2023/08/05 02:24:33;;;;;;;9.35;7.15;;;;;;;16.61;72.78;101536.72;5070845;28;20086;-77
2023/08/05 02:26:59;;;;;;;8.40;6.90;;;;;;;16.62;72.69;101541.19;5070040;28;20112;-78
2023/08/05 02:29:24;;;;;;;8.05;6.80;;;;;;;16.65;72.56;101540.66;5062922;28;20074;-78
2023/08/05 02:31:49;;;;;;;8.93;7.05;;;;;;;16.57;72.76;101536.44;5070909;28;20040;-77
2023/08/05 02:34:15;;;;;;;7.65;6.95;;;;;;;16.58;72.79;101531.66;5070001;28;20405;-77
2023/08/05 02:36:40;;;;;;;8.20;7.40;;;;;;;16.58;72.87;101520.44;5071050;28;20047;-77
2023/08/05 02:39:05;;;;;;;10.38;7.32;;;;;;;16.57;72.71;101516.81;5070665;28;20028;-77
2023/08/05 02:41:30;;;;;;;8.35;7.55;;;;;;;16.56;72.73;101517.09;5070146;28;20035;-77
2023/08/05 02:43:56;;;;;;;8.90;7.47;;;;;;;16.58;72.73;101510.06;5070737;28;20476;-77
2023/08/05 02:46:21;;;;;;;10.73;7.20;;;;;;;16.57;72.50;101518.78;5066506;28;20427;-77
2023/08/05 02:48:46;;;;;;;10.85;7.90;;;;;;;16.53;72.56;101524.09;5067939;28;20029;-77
2023/08/05 02:51:12;;;;;;;8.45;7.60;;;;;;;16.51;72.63;101519.91;5070697;28;20031;-77
2023/08/05 02:53:37;;;;;;;9.55;7.95;;;;;;;16.49;72.90;101520.16;5070818;28;20063;-77
2023/08/05 02:56:02;;;;;;;9.23;7.10;;;;;;;16.45;72.76;101511.47;5071741;28;20046;-77
2023/08/05 02:58:27;;;;;;;9.23;8.05;;;;;;;16.45;72.82;101516.22;5073940;28;20515;-77
2023/08/05 03:00:53;;;;;;;9.38;7.70;;;;;;;16.48;72.71;101514.84;5071412;28;20029;-78
2023/08/05 03:03:19;;;;;;;10.45;7.95;;;;;;;16.39;72.82;101512.59;5072455;28;20079;-77
2023/08/05 03:05:44;;;;;;;9.18;7.78;;;;;;;16.42;72.74;101514.81;5074095;28;20028;-77
2023/08/05 03:08:12;;;;;;;10.57;8.23;;;;;;;16.43;72.71;101510.06;5074080;28;20107;-77
2023/08/05 03:10:39;;;;;;;9.48;7.78;;;;;;;16.37;72.75;101503.59;5073386;28;20074;-77
2023/08/05 03:13:04;;;;;;;12.02;8.27;;;;;;;16.31;73.19;101492.63;5057439;28;20071;-77
2023/08/05 03:15:30;;;;;;;8.95;8.13;;;;;;;16.34;73.04;101487.34;5053690;28;20455;-77
2023/08/05 03:17:55;;;;;;;8.80;7.90;;;;;;;16.33;73.25;101488.47;5053370;28;20037;-76
2023/08/05 03:20:32;;;;;;;9.45;8.18;;;;;;;16.33;73.31;101491.25;5054029;28;20095;-76
2023/08/05 03:22:57;;;;;;;10.35;7.97;;;;;;;16.29;73.15;101480.88;5053026;28;20039;-77
2023/08/05 03:25:25;;;;;;;11.68;8.05;;;;;;;16.26;73.46;101487.03;5053604;28;20103;-76
2023/08/05 03:27:51;;;;;;;10.57;8.70;;;;;;;16.30;73.38;101475.00;5054204;28;20456;-77
2023/08/05 03:30:17;;;;;;;9.70;8.02;;;;;;;16.29;73.41;101481.72;5053187;28;20048;-78
2023/08/05 03:32:43;;;;;;;9.13;8.20;;;;;;;16.27;73.19;101475.56;5053556;28;20061;-77
2023/08/05 03:35:09;;;;;;;10.63;8.27;;;;;;;16.25;73.17;101480.59;5053747;28;20033;-76
2023/08/05 03:37:34;;;;;;;8.93;8.13;;;;;;;16.29;73.13;101473.31;5053408;28;20479;-76
2023/08/05 03:39:59;;;;;;;9.55;8.55;;;;;;;16.27;73.13;101475.56;5053527;28;20040;-77
2023/08/05 03:42:25;;;;;;;9.45;8.43;;;;;;;16.25;73.21;101466.59;5054031;28;20063;-76
2023/08/05 03:44:50;;;;;;;11.10;8.40;;;;;;;16.17;73.63;101467.13;5052545;28;20090;-77
2023/08/05 03:47:16;;;;;;;9.15;8.18;;;;;;;16.16;73.71;101457.06;5061481;28;20090;-77
2023/08/05 03:49:41;;;;;;;9.32;8.43;;;;;;;16.14;73.68;101445.25;5073685;28;20028;-77
2023/08/05 03:52:07;;;;;;;10.15;8.20;;;;;;;16.13;73.34;101454.78;5072579;28;20483;-77
2023/08/05 03:54:33;;;;;;;10.45;8.20;;;;;;;16.16;73.47;101445.84;5073532;28;20448;-77
2023/08/05 03:56:59;;;;;;;10.88;8.52;;;;;;;16.16;73.32;101451.44;5073203;28;20016;-77
2023/08/05 03:59:25;;;;;;;10.48;8.30;;;;;;;16.14;73.52;101448.91;5072339;28;20024;-77
2023/08/05 04:01:50;;;;;;;11.63;8.82;;;;;;;16.10;73.63;101435.72;5073503;28;20023;-77
2023/08/05 04:04:15;;;;;;;10.00;8.77;;;;;;;16.07;73.81;101431.56;5070282;28;20481;-77
2023/08/05 04:06:41;;;;;;;10.02;8.90;;;;;;;16.11;74.00;101427.09;5070934;28;20037;-77
2023/08/05 04:09:06;;;;;;;9.68;8.63;;;;;;;16.07;74.17;101441.88;5072806;28;20500;-77
2023/08/05 04:11:32;;;;;;;11.45;8.68;;;;;;;16.10;73.93;101441.34;5073268;28;20033;-77
2023/08/05 04:13:59;;;;;;;10.50;9.40;;;;;;;16.12;73.97;101430.72;5072308;28;20021;-77
2023/08/05 04:16:25;;;;;;;9.70;8.55;;;;;;;16.12;73.96;101428.75;5072256;28;20101;-77
2023/08/05 04:18:52;;;;;;;10.55;9.00;;;;;;;16.05;74.05;101439.38;5073147;28;20107;-77
2023/08/05 04:21:17;;;;;;;10.50;9.43;;;;;;;16.09;74.18;101448.06;5072156;28;20025;-77
2023/08/05 04:23:42;;;;;;;10.63;9.52;;;;;;;16.05;74.29;101428.16;5069866;28;20039;-77
2023/08/05 04:26:08;;;;;;;11.40;9.73;;;;;;;16.06;74.04;101406.59;5051840;28;20119;-76
2023/08/05 04:28:33;;;;;;;10.80;9.13;;;;;;;16.10;74.27;101404.94;5052897;28;20107;-78
2023/08/05 04:30:59;;;;;;;10.93;9.30;;;;;;;16.05;74.36;101399.34;5052829;28;20028;-77
2023/08/05 04:33:27;;;;;;;9.95;8.95;;;;;;;16.05;74.38;101404.94;5052352;28;20714;-77
2023/08/05 04:35:53;;;;;;;11.60;9.60;;;;;;;16.05;74.54;101390.94;5052570;28;20484;-77
2023/08/05 04:38:19;;;;;;;10.90;9.07;;;;;;;15.98;74.40;101391.19;5052965;28;20025;-77
2023/08/05 04:40:45;;;;;;;10.93;9.45;;;;;;;16.04;74.52;101392.91;5055018;28;20045;-77
2023/08/05 04:43:11;;;;;;;10.98;9.65;;;;;;;15.98;74.74;101393.97;5052363;28;20032;-77
2023/08/05 04:45:37;;;;;;;10.82;9.55;;;;;;;16.00;74.57;101386.16;5052456;28;20488;-77
2023/08/05 04:48:04;;;;;;;12.98;10.15;;;;;;;16.06;74.42;101381.41;5051957;28;20037;-77
2023/08/05 04:50:29;;;;;;;10.77;9.45;;;;;;;16.06;74.72;101385.03;5052020;28;20029;-77
2023/08/05 04:52:55;;;;;;;11.00;8.90;;;;;;;16.01;74.56;101382.25;5052269;28;20029;-77
2023/08/05 04:55:20;;;;;;;11.75;9.18;;;;;;;15.98;74.61;101377.19;5051453;28;20033;-77
2023/08/05 04:57:50;;;;;;;10.48;9.00;;;;;;;16.00;74.61;101385.31;5051246;28;20028;-77
2023/08/05 05:00:16;;;;;;;10.32;8.85;;;;;;;15.96;74.64;101387.84;5064560;28;20024;-77
2023/08/05 05:02:41;;;;;;;10.35;9.30;;;;;;;15.98;74.84;101381.94;5057807;28;20377;-78
2023/08/05 05:05:07;;;;;;;11.07;9.43;;;;;;;15.95;74.89;101381.41;5051848;28;20499;-77
2023/08/05 05:07:32;;;;;;;14.00;9.55;;;;;;;15.94;75.09;101392.84;5051897;28;20025;-77
2023/08/05 05:09:57;;;;;;;12.15;9.70;;;;;;;15.97;75.02;101391.47;5051034;28;20087;-77
2023/08/05 05:12:22;;;;;;;12.40;9.30;;;;;;;15.95;75.09;101384.19;5051524;28;20107;-78
2023/08/05 05:14:48;;;;;;;11.98;10.40;;;;;;;15.91;75.16;101380.25;5051643;28;20025;-77
2023/08/05 05:17:15;;;;;;;13.32;10.40;;;;;;;15.85;75.43;101375.75;5050950;28;20124;-77
2023/08/05 05:19:41;;;;;;;12.88;9.60;;;;;;;15.83;75.71;101375.19;5055437;28;20469;-77
2023/08/05 05:22:06;;;;;;;14.90;10.45;;;;;;;15.86;75.54;101380.22;5051475;28;20108;-76
2023/08/05 05:24:32;;;;;;;11.07;9.93;;;;;;;15.82;75.30;101379.09;5050699;28;20039;-77
2023/08/05 05:26:57;;;;;;;12.32;10.40;;;;;;;15.86;75.49;101374.63;5051674;28;20029;-77
2023/08/05 05:29:23;;;;;;;12.98;10.00;;;;;;;15.85;75.48;101381.34;5050658;28;20112;-77
2023/08/05 05:31:48;;;;;;;11.57;10.05;;;;;;;15.91;75.23;101373.81;5051696;28;20449;-77
2023/08/05 05:34:14;;;;;;;15.27;10.35;;;;;;;15.90;75.43;101367.38;5051576;28;20603;-77
2023/08/05 05:36:39;;;;;;;14.70;10.48;;;;;;;15.95;75.39;101363.72;5066872;28;20032;-77
2023/08/05 05:39:04;;;;;;;12.57;10.18;;;;;;;16.01;75.40;101371.03;5071424;28;20048;-77
2023/08/05 05:41:29;;;;;;;11.43;10.25;;;;;;;15.97;75.43;101366.28;5071378;28;20032;-77
2023/08/05 05:43:56;;;;;;;13.82;9.98;;;;;;;16.00;75.35;101362.94;5070604;28;20124;-76
2023/08/05 05:46:21;;;;;;;12.50;10.05;;;;;;;16.08;75.36;101362.38;5071236;28;20028;-76
2023/08/05 05:48:47;;;;;;;13.57;10.85;;;;;;;16.07;75.75;101360.69;5071276;28;20461;-77
2023/08/05 05:51:12;;;;;;;13.77;11.18;;;;;;;16.04;75.53;101352.84;5068162;28;20028;-77
2023/08/05 05:53:37;;;;;;;13.95;11.77;;;;;;;16.04;75.56;101358.47;5070671;28;20081;-77
2023/08/05 05:56:03;;;;;;;14.77;10.45;;;;;;;16.10;75.43;101368.53;5071294;28;20021;-77
2023/08/05 05:58:29;;;;;;;12.05;10.60;;;;;;;16.12;75.76;101363.50;5068619;28;20517;-77
2023/08/05 06:00:55;;;;;;;12.82;10.40;;;;;;;16.16;75.67;101354.25;5071293;28;20035;-77
2023/08/05 06:03:21;;;;;;;12.73;11.05;;;;;;;16.16;75.71;101359.03;5070836;28;20024;-77
2023/08/05 06:05:46;;;;;;;13.52;10.95;;;;;;;16.24;75.91;101358.47;5070544;28;20029;-77
2023/08/05 06:08:11;;;;;;;11.90;10.23;;;;;;;16.28;75.53;101351.19;5071377;28;20079;-78
2023/08/05 06:10:38;;;;;;;11.30;10.00;;;;;;;16.30;74.98;101348.94;5071207;28;20060;-78
2023/08/05 06:13:04;;;;;;;13.07;9.57;;;;;;;16.30;75.31;101345.28;5070516;28;20423;-78
2023/08/05 06:15:30;;;;;;;11.43;9.85;;;;;;;16.33;75.65;101345.59;5067468;28;20044;-77
2023/08/05 06:17:55;;;;;;;12.35;9.25;;;;;;;16.36;76.03;101341.38;5051397;28;20042;-77
2023/08/05 06:20:21;;;;;;;11.90;9.50;;;;;;;16.39;75.71;101338.03;5050484;28;20120;-77
2023/08/05 06:22:46;;;;;;;10.10;9.07;;;;;;;16.40;75.53;101350.91;5051633;28;20074;-77
2023/08/05 06:25:12;;;;;;;10.77;8.90;;;;;;;16.41;75.96;101350.63;5050878;28;20106;-77
2023/08/05 06:27:37;;;;;;;9.38;8.32;;;;;;;16.44;75.82;101344.47;5050417;28;20025;-77
2023/08/05 06:30:03;;;;;;;12.00;8.20;;;;;;;16.49;75.77;101339.97;5051836;28;20033;-77
2023/08/05 06:32:29;;;;;;;11.55;8.35;;;;;;;16.48;75.90;101336.34;5062580;28;20027;-77
2023/08/05 06:34:54;;;;;;;13.23;8.00;;;;;;;16.54;76.03;101338.00;5074256;28;20021;-77
2023/08/05 06:37:20;;;;;;;9.23;7.18;;;;;;;16.56;75.59;101334.94;5074926;28;20032;-77
2023/08/05 06:39:45;;;;;;;10.00;7.82;;;;;;;16.58;75.69;101346.69;5074157;28;20028;-77
2023/08/05 06:42:10;;;;;;;9.32;7.72;;;;;;;16.62;75.56;101343.06;5074567;28;20033;-77
2023/08/05 06:44:37;;;;;;;8.35;7.22;;;;;;;16.59;75.35;101332.41;5074255;28;20133;-77
2023/08/05 06:47:03;;;;;;;10.50;7.05;;;;;;;16.63;75.45;101329.91;5073916;28;20913;-77
2023/08/05 06:49:28;;;;;;;8.45;7.40;;;;;;;16.62;75.23;101333.78;5070520;28;20029;-77
2023/08/05 06:51:54;;;;;;;7.80;6.80;;;;;;;16.66;75.29;101334.91;5072589;28;20033;-77
2023/08/05 06:54:21;;;;;;;9.93;7.78;;;;;;;16.71;75.15;101329.31;5073456;28;20047;-78
2023/08/05 06:56:46;;;;;;;10.38;7.35;;;;;;;16.72;74.84;101324.53;5074680;28;20025;-77
2023/08/05 06:59:12;;;;;;;10.00;8.50;;;;;;;16.75;74.63;101329.63;5074412;28;20028;-78
2023/08/05 07:01:37;;;;;;;9.65;8.73;;;;;;;16.80;74.57;101318.41;5070669;28;20107;-78
2023/08/05 07:04:03;;;;;;;12.65;8.68;;;;;;;16.83;74.57;101317.84;5063945;28;20029;-78
2023/08/05 07:06:28;;;;;;;11.55;8.70;;;;;;;16.90;74.37;101313.63;5074791;28;20028;-78
2023/08/05 07:08:53;;;;;;;10.95;8.70;;;;;;;16.92;74.23;101313.31;5073260;28;20029;-78
2023/08/05 07:11:18;;;;;;;8.40;7.20;;;;;;;16.96;74.07;101307.97;5074445;28;20017;-78
2023/08/05 07:13:44;;;;;;;8.43;7.35;;;;;;;16.99;74.05;101316.66;5074056;28;20063;-78
2023/08/05 07:16:09;;;;;;;7.38;6.60;;;;;;;17.00;73.76;101309.09;5073512;28;20496;-78
2023/08/05 07:18:35;;;;;;;10.02;6.53;;;;;;;17.02;72.74;101315.25;5074465;28;20090;-78
2023/08/05 07:21:00;;;;;;;7.95;6.63;;;;;;;17.03;73.22;101309.34;5069398;28;20025;-78
2023/08/05 07:23:25;;;;;;;6.80;5.80;;;;;;;17.07;73.09;101315.25;5052914;28;20027;-78
2023/08/05 07:25:51;;;;;;;10.60;6.43;;;;;;;17.06;73.17;101302.34;5054162;28;20098;-78
2023/08/05 07:28:16;;;;;;;8.43;6.25;;;;;;;17.10;72.88;101298.69;5054037;28;20097;-78
2023/08/05 07:30:41;;;;;;;9.32;5.95;;;;;;;17.12;73.05;101304.00;5052925;28;20424;-78
2023/08/05 07:33:09;;;;;;;6.40;5.05;;;;;;;17.23;73.00;101308.44;5053658;28;20080;-78
2023/08/05 07:35:35;;;;;;;7.57;5.47;;;;;;;17.31;73.71;101307.84;5053634;28;20514;-78
2023/08/05 07:38:09;;;;;;;9.18;6.10;;;;;;;17.32;72.31;101312.31;5053138;28;20017;-77
2023/08/05 07:40:35;;;;;;;7.05;5.68;;;;;;;17.32;71.84;101303.06;5053544;28;20052;-77
2023/08/05 07:43:00;;;;;;;9.60;6.55;;;;;;;17.35;72.32;101300.53;5051527;28;20489;-77
2023/08/05 07:45:26;;;;;;;9.40;6.50;;;;;;;17.41;72.63;101299.41;5055079;28;20058;-77
2023/08/05 07:47:52;;;;;;;6.88;5.43;;;;;;;17.49;72.64;101297.09;5053473;28;20111;-77
2023/08/05 07:50:21;;;;;;;9.57;6.32;;;;;;;17.53;72.01;101287.81;5052451;28;20767;-77
2023/08/05 07:52:48;;;;;;;8.32;6.40;;;;;;;17.54;71.56;101281.06;5053145;28;20393;-77
2023/08/05 07:55:13;;;;;;;8.75;6.57;;;;;;;17.52;71.15;101280.50;5053123;28;20029;-77
2023/08/05 07:57:40;;;;;;;7.60;6.68;;;;;;;17.55;71.90;101281.91;5052603;28;20044;-77
2023/08/05 08:00:08;;;;;;;10.02;5.80;;;;;;;17.52;71.46;101266.47;5053221;28;20106;-77
2023/08/05 08:02:34;;;;;;;8.70;6.32;;;;;;;17.58;70.80;101262.53;5053320;28;20029;-77
2023/08/05 08:05:03;;;;;;;7.85;5.32;;;;;;;17.71;70.71;101254.59;5062241;28;20384;-77
2023/08/05 08:07:28;;;;;;;6.40;5.50;;;;;;;17.86;70.34;101243.28;5072977;28;20028;-77
2023/08/05 08:09:53;;;;;;;8.73;5.93;;;;;;;17.91;69.70;101249.69;5073188;28;20130;-77
2023/08/05 08:12:19;;;;;;;8.88;4.80;;;;;;;17.96;70.15;101251.63;5072387;28;20032;-77
2023/08/05 08:14:45;;;;;;;6.85;4.32;;;;;;;18.00;70.07;101255.53;5073181;28;20483;-78
2023/08/05 08:17:11;;;;;;;6.30;4.57;;;;;;;17.98;69.28;101251.31;5072736;28;20499;-77
2023/08/05 08:19:37;;;;;;;4.55;3.70;;;;;;;17.93;68.69;101243.78;5072147;28;20035;-77
2023/08/05 08:22:02;;;;;;;5.40;4.25;;;;;;;17.93;69.51;101242.94;5065609;28;20037;-77
2023/08/05 08:24:28;;;;;;;5.35;3.70;;;;;;;17.89;68.67;101237.91;5065337;28;20024;-78
2023/08/05 08:26:53;;;;;;;5.35;3.22;;;;;;;17.90;68.86;101233.13;5073776;28;20024;-78
2023/08/05 08:29:18;;;;;;;3.88;3.47;;;;;;;17.88;69.10;101238.19;5072535;28;20044;-78
2023/08/05 08:31:44;;;;;;;5.00;3.83;;;;;;;17.90;68.94;101238.75;5072453;28;20230;-78
2023/08/05 08:34:09;;;;;;;4.65;3.38;;;;;;;17.93;68.95;101238.16;5071840;28;20028;-78
2023/08/05 08:36:34;;;;;;;5.90;3.17;;;;;;;17.94;69.38;101228.59;5072048;28;20028;-78
2023/08/05 08:39:00;;;;;;;3.92;3.53;;;;;;;18.10;69.67;101223.69;5072308;28;20070;-78
2023/08/05 08:41:26;;;;;;;3.58;3.28;;;;;;;18.19;68.47;101213.47;5071898;28;20038;-78
2023/08/05 08:43:54;;;;;;;4.68;3.78;;;;;;;18.19;68.06;101210.66;5066527;28;20484;-78
2023/08/05 08:46:20;;;;;;;3.33;2.97;;;;;;;18.29;68.23;101198.50;5051308;28;20384;-78
2023/08/05 08:48:48;;;;;;;5.97;3.30;;;;;;;18.35;66.80;101206.59;5052204;28;20086;-78
2023/08/05 08:51:16;;;;;;;2.92;2.60;;;;;;;18.46;66.59;101201.69;5052535;28;20025;-78
2023/08/05 08:53:43;;;;;;;4.03;3.03;;;;;;;18.57;66.69;101199.59;5053040;28;20040;-77
2023/08/05 08:56:09;;;;;;;3.33;2.63;;;;;;;18.60;66.56;101191.41;5069354;28;20025;-78
2023/08/05 08:58:34;;;;;;;3.72;3.20;;;;;;;18.64;66.27;101188.84;5072322;28;20033;-78
2023/08/05 09:01:00;;;;;;;4.28;3.40;;;;;;;18.64;65.34;101186.03;5070924;28;20098;-78
2023/08/05 09:03:28;;;;;;;4.43;2.58;;;;;;;18.66;65.80;101183.75;5063841;28;20036;-78
2023/08/05 09:05:56;;;;;;;5.78;3.10;;;;;;;18.68;65.92;101177.84;5072177;28;20034;-78
2023/08/05 09:08:21;;;;;;;3.58;3.28;;;;;;;18.67;65.06;101178.97;5071368;28;20476;-78
2023/08/05 09:10:46;;;;;;;6.72;3.35;;;;;;;18.65;65.13;101173.66;5072102;28;20047;-78
2023/08/05 09:13:16;;;;;;;5.40;3.33;;;;;;;18.66;65.43;101183.75;5071712;28;20411;-78
2023/08/05 09:15:41;;;;;;;6.57;3.75;;;;;;;18.60;65.15;101168.94;5071728;28;20054;-79
2023/08/05 09:18:08;;;;;;;6.03;3.35;;;;;;;18.59;65.27;101164.44;5069689;28;20136;-78
2023/08/05 09:20:34;;;;;;;4.60;2.97;;;;;;;18.61;66.17;101159.34;5070695;28;20471;-78
2023/08/05 09:23:02;;;;;;;5.30;3.25;;;;;;;18.56;66.00;101155.78;5071388;28;20483;-78
2023/08/05 09:25:31;;;;;;;4.55;3.38;;;;;;;18.54;66.08;101152.41;5071984;28;20101;-79
2023/08/05 09:27:59;;;;;;;6.60;3.55;;;;;;;18.53;66.47;101140.34;5071714;28;20483;-78
2023/08/05 09:30:25;;;;;;;7.32;4.00;;;;;;;18.48;66.05;101139.56;5071161;28;20035;-79
2023/08/05 09:32:52;;;;;;;8.35;4.30;;;;;;;18.46;66.47;101139.00;5072310;28;20051;-78
2023/08/05 09:35:17;;;;;;;6.10;4.57;;;;;;;18.45;66.97;101128.91;5069992;28;20024;-78
2023/08/05 09:37:48;;;;;;;4.85;4.10;;;;;;;18.49;67.16;101130.81;5068560;28;20036;-78
2023/08/05 09:40:18;;;;;;;5.32;4.15;;;;;;;18.50;66.77;101135.31;5072344;28;20025;-78
2023/08/05 09:42:47;;;;;;;4.90;4.40;;;;;;;18.48;67.62;101131.13;5071289;28;20028;-78
2023/08/05 09:45:14;;;;;;;7.28;4.20;;;;;;;18.52;66.93;101129.41;5071731;28;20051;-78
2023/08/05 09:47:42;;;;;;;4.90;3.85;;;;;;;18.51;67.06;101127.69;5071802;28;20028;-78
2023/08/05 09:50:11;;;;;;;6.28;4.45;;;;;;;18.44;66.78;101116.84;5071196;28;20028;-78
2023/08/05 09:52:37;;;;;;;5.70;3.75;;;;;;;18.51;67.45;101105.22;5063173;28;20082;-78
2023/08/05 09:55:11;;;;;;;5.57;3.88;;;;;;;18.53;66.82;101100.16;5051580;28;20065;-78
2023/08/05 09:57:37;;;;;;;5.72;4.03;;;;;;;18.52;66.93;101092.84;5051075;28;20485;-78
2023/08/05 10:00:08;;;;;;;4.95;3.75;;;;;;;18.51;66.73;101102.41;5051607;28;20078;-78
2023/08/05 10:02:35;;;;;;;5.25;3.50;;;;;;;18.49;66.87;101091.47;5051155;28;20078;-78
2023/08/05 10:05:01;;;;;;;6.32;3.75;;;;;;;18.50;67.29;101084.72;5051051;28;20033;-78
2023/08/05 10:07:27;;;;;;;5.50;3.70;;;;;;;18.54;67.73;101085.78;5055376;28;20033;-78
2023/08/05 10:09:53;;;;;;;6.35;3.50;;;;;;;18.56;67.10;101089.13;5071018;28;20665;-78
2023/08/05 10:12:24;;;;;;;4.35;3.72;;;;;;;18.54;66.87;101084.94;5074489;28;20020;-78
2023/08/05 10:14:50;;;;;;;4.68;3.72;;;;;;;18.56;66.72;101088.31;5075553;28;20039;-78
2023/08/05 10:17:17;;;;;;;6.93;3.53;;;;;;;18.53;66.63;101080.47;5074886;28;20071;-78
2023/08/05 10:19:47;;;;;;;5.25;4.22;;;;;;;18.49;67.75;101082.22;5074367;28;20101;-78
2023/08/05 10:22:13;;;;;;;6.53;4.93;;;;;;;18.45;70.82;101087.59;5075058;28;20028;-78
2023/08/05 10:24:50;;;;;;;6.40;5.10;;;;;;;18.46;70.79;101078.00;5074859;28;20086;-78
2023/08/05 10:27:16;;;;;;;5.82;5.32;;;;;;;18.42;71.08;101068.50;5060398;28;20037;-78
2023/08/05 10:29:52;;;;;;;7.20;5.50;;;;;;;18.42;70.69;101079.75;5054933;28;20021;-78
2023/08/05 10:32:28;;;;;;;6.68;5.32;;;;;;;18.39;71.45;101078.41;5054312;28;20033;-79
2023/08/05 10:35:31;;;;;;;7.10;6.40;;;;;;;18.41;70.80;101075.28;5054848;28;20021;-78
2023/08/05 10:38:08;;;;;;;6.10;5.50;;;;;;;18.38;70.39;101064.63;5054743;28;20029;-78
2023/08/05 10:40:44;;;;;;;6.65;5.85;;;;;;;18.38;70.47;101062.66;5053906;28;20461;-78
2023/08/05 10:43:12;;;;;;;6.82;5.07;;;;;;;18.39;70.05;101067.16;5059634;28;20077;-78
2023/08/05 10:45:40;;;;;;;6.45;4.88;;;;;;;18.40;70.67;101063.19;5060385;28;20033;-77
2023/08/05 10:48:08;;;;;;;6.47;4.82;;;;;;;18.47;69.68;101064.78;5054027;28;20051;-78
2023/08/05 10:50:42;;;;;;;5.78;4.63;;;;;;;18.49;69.75;101066.19;5054586;28;20358;-78
2023/08/05 10:53:09;;;;;;;6.50;5.20;;;;;;;18.47;69.21;101056.38;5053580;28;20025;-78
2023/08/05 10:55:46;;;;;;;8.25;5.20;;;;;;;18.47;69.55;101061.97;5054381;28;20029;-78
2023/08/05 10:58:12;;;;;;;5.55;4.72;;;;;;;18.47;69.34;101053.56;5054461;28;20047;-78
2023/08/05 11:00:39;;;;;;;5.93;4.43;;;;;;;18.47;67.71;101053.56;5053403;28;20021;-78
2023/08/05 11:03:31;;;;;;;6.68;4.60;;;;;;;18.51;68.34;101051.81;5056980;28;20021;-78
2023/08/05 11:06:03;;;;;;;4.28;3.88;;;;;;;18.48;67.41;101055.25;5054178;28;20036;-78
2023/08/05 11:08:30;;;;;;;6.63;4.50;;;;;;;18.48;67.28;101044.00;5053247;28;20025;-78
2023/08/05 11:10:57;;;;;;;4.85;4.03;;;;;;;18.52;67.47;101050.69;5054317;28;20060;-78
2023/08/05 11:13:23;;;;;;;4.90;3.97;;;;;;;18.53;66.74;101039.13;5054065;28;20021;-78
2023/08/05 11:16:26;;;;;;;6.20;4.22;;;;;;;18.52;66.78;101043.09;5052885;28;20534;-78
2023/08/05 11:18:56;;;;;;;6.07;4.60;;;;;;;18.51;66.44;101040.56;5061997;28;20048;-78